sensor_id;sensor_type;location;lat;lon;timestamp;P1;durP1;ratioP1;P2;durP2;ratioP2
45402;SDS011;47427;51.976;5.326;2024-01-30T00:02:28;29.08;;;23.52;;
45402;SDS011;47427;51.976;5.326;2024-01-30T00:05:31;24.08;;;20.27;;
45402;SDS011;47427;51.976;5.326;2024-01-30T00:08:34;28.80;;;20.90;;
45402;SDS011;47427;51.976;5.326;2024-01-30T00:11:37;30.95;;;21.45;;
45402;SDS011;47427;51.976;5.326;2024-01-30T00:14:43;23.08;;;20.08;;
45402;SDS011;47427;51.976;5.326;2024-01-30T00:18:04;28.42;;;20.05;;
45402;SDS011;47427;51.976;5.326;2024-01-30T00:21:06;22.10;;;18.85;;
45402;SDS011;47427;51.976;5.326;2024-01-30T00:24:07;25.75;;;20.98;;
45402;SDS011;47427;51.976;5.326;2024-01-30T00:27:10;24.50;;;20.40;;
45402;SDS011;47427;51.976;5.326;2024-01-30T00:30:13;25.63;;;19.67;;
45402;SDS011;47427;51.976;5.326;2024-01-30T00:33:16;27.48;;;19.73;;
45402;SDS011;47427;51.976;5.326;2024-01-30T00:36:18;30.60;;;21.92;;
45402;SDS011;47427;51.976;5.326;2024-01-30T00:39:20;26.23;;;20.15;;
45402;SDS011;47427;51.976;5.326;2024-01-30T00:42:23;23.60;;;19.13;;
45402;SDS011;47427;51.976;5.326;2024-01-30T00:45:27;28.08;;;19.92;;
45402;SDS011;47427;51.976;5.326;2024-01-30T00:48:28;23.80;;;20.17;;
45402;SDS011;47427;51.976;5.326;2024-01-30T00:51:31;24.38;;;19.95;;
45402;SDS011;47427;51.976;5.326;2024-01-30T00:54:34;25.25;;;20.48;;
45402;SDS011;47427;51.976;5.326;2024-01-30T00:57:37;25.17;;;19.40;;
45402;SDS011;47427;51.976;5.326;2024-01-30T01:00:39;22.92;;;20.50;;
45402;SDS011;47427;51.976;5.326;2024-01-30T01:03:41;24.85;;;19.30;;
45402;SDS011;47427;51.976;5.326;2024-01-30T01:06:45;24.90;;;19.73;;
45402;SDS011;47427;51.976;5.326;2024-01-30T01:09:48;22.88;;;19.02;;
45402;SDS011;47427;51.976;5.326;2024-01-30T01:12:51;21.90;;;19.27;;
45402;SDS011;47427;51.976;5.326;2024-01-30T01:15:52;25.48;;;18.70;;
45402;SDS011;47427;51.976;5.326;2024-01-30T01:18:55;26.23;;;19.83;;
45402;SDS011;47427;51.976;5.326;2024-01-30T01:21:58;22.70;;;18.77;;
45402;SDS011;47427;51.976;5.326;2024-01-30T01:25:01;24.65;;;19.45;;
45402;SDS011;47427;51.976;5.326;2024-01-30T01:28:03;22.83;;;20.33;;
45402;SDS011;47427;51.976;5.326;2024-01-30T01:31:06;26.70;;;19.48;;
45402;SDS011;47427;51.976;5.326;2024-01-30T01:34:12;22.33;;;19.50;;
45402;SDS011;47427;51.976;5.326;2024-01-30T01:37:15;23.50;;;19.83;;
45402;SDS011;47427;51.976;5.326;2024-01-30T01:40:16;20.33;;;18.05;;
45402;SDS011;47427;51.976;5.326;2024-01-30T01:43:19;23.70;;;19.10;;
45402;SDS011;47427;51.976;5.326;2024-01-30T01:46:22;22.88;;;17.45;;
45402;SDS011;47427;51.976;5.326;2024-01-30T01:49:25;29.13;;;19.15;;
45402;SDS011;47427;51.976;5.326;2024-01-30T01:52:29;22.92;;;17.88;;
45402;SDS011;47427;51.976;5.326;2024-01-30T01:55:32;20.55;;;18.25;;
45402;SDS011;47427;51.976;5.326;2024-01-30T01:58:36;23.70;;;17.95;;
45402;SDS011;47427;51.976;5.326;2024-01-30T02:01:39;21.05;;;17.73;;
45402;SDS011;47427;51.976;5.326;2024-01-30T02:04:42;21.05;;;18.27;;
45402;SDS011;47427;51.976;5.326;2024-01-30T02:07:45;21.92;;;18.63;;
45402;SDS011;47427;51.976;5.326;2024-01-30T02:10:48;22.90;;;18.38;;
45402;SDS011;47427;51.976;5.326;2024-01-30T02:13:51;22.15;;;18.02;;
45402;SDS011;47427;51.976;5.326;2024-01-30T02:16:54;19.77;;;17.48;;
45402;SDS011;47427;51.976;5.326;2024-01-30T02:19:57;21.20;;;18.42;;
45402;SDS011;47427;51.976;5.326;2024-01-30T02:23:01;22.55;;;18.67;;
45402;SDS011;47427;51.976;5.326;2024-01-30T02:26:04;30.33;;;19.55;;
45402;SDS011;47427;51.976;5.326;2024-01-30T02:29:07;25.10;;;19.52;;
45402;SDS011;47427;51.976;5.326;2024-01-30T02:32:09;27.90;;;20.20;;
45402;SDS011;47427;51.976;5.326;2024-01-30T02:35:11;24.23;;;20.95;;
45402;SDS011;47427;51.976;5.326;2024-01-30T02:38:17;26.58;;;22.65;;
45402;SDS011;47427;51.976;5.326;2024-01-30T02:41:20;29.67;;;22.75;;
45402;SDS011;47427;51.976;5.326;2024-01-30T02:44:22;37.38;;;25.17;;
45402;SDS011;47427;51.976;5.326;2024-01-30T02:47:25;36.05;;;23.85;;
45402;SDS011;47427;51.976;5.326;2024-01-30T02:50:27;29.45;;;23.45;;
45402;SDS011;47427;51.976;5.326;2024-01-30T02:53:30;31.80;;;24.55;;
45402;SDS011;47427;51.976;5.326;2024-01-30T02:56:32;32.40;;;24.45;;
45402;SDS011;47427;51.976;5.326;2024-01-30T02:59:34;34.20;;;22.02;;
45402;SDS011;47427;51.976;5.326;2024-01-30T03:02:56;27.38;;;20.35;;
45402;SDS011;47427;51.976;5.326;2024-01-30T03:05:58;28.90;;;21.20;;
45402;SDS011;47427;51.976;5.326;2024-01-30T03:09:00;28.45;;;21.52;;
45402;SDS011;47427;51.976;5.326;2024-01-30T03:12:03;25.10;;;18.65;;
45402;SDS011;47427;51.976;5.326;2024-01-30T03:15:07;22.33;;;19.58;;
45402;SDS011;47427;51.976;5.326;2024-01-30T03:18:11;29.23;;;18.48;;
45402;SDS011;47427;51.976;5.326;2024-01-30T03:21:13;23.13;;;16.27;;
45402;SDS011;47427;51.976;5.326;2024-01-30T03:24:16;20.98;;;17.15;;
45402;SDS011;47427;51.976;5.326;2024-01-30T03:27:19;19.83;;;17.65;;
45402;SDS011;47427;51.976;5.326;2024-01-30T03:30:22;18.73;;;15.98;;
45402;SDS011;47427;51.976;5.326;2024-01-30T03:33:23;19.10;;;17.05;;
45402;SDS011;47427;51.976;5.326;2024-01-30T03:36:26;20.35;;;16.45;;
45402;SDS011;47427;51.976;5.326;2024-01-30T03:39:30;18.75;;;16.65;;
45402;SDS011;47427;51.976;5.326;2024-01-30T03:42:32;19.98;;;16.08;;
45402;SDS011;47427;51.976;5.326;2024-01-30T03:45:34;18.80;;;16.38;;
45402;SDS011;47427;51.976;5.326;2024-01-30T03:48:37;18.98;;;15.55;;
45402;SDS011;47427;51.976;5.326;2024-01-30T03:51:40;16.55;;;14.80;;
45402;SDS011;47427;51.976;5.326;2024-01-30T03:54:42;17.58;;;15.75;;
45402;SDS011;47427;51.976;5.326;2024-01-30T03:57:44;22.02;;;16.67;;
45402;SDS011;47427;51.976;5.326;2024-01-30T04:00:47;20.13;;;17.77;;
45402;SDS011;47427;51.976;5.326;2024-01-30T04:03:49;19.77;;;17.00;;
45402;SDS011;47427;51.976;5.326;2024-01-30T04:06:52;25.33;;;17.75;;
45402;SDS011;47427;51.976;5.326;2024-01-30T04:09:54;20.45;;;18.25;;
45402;SDS011;47427;51.976;5.326;2024-01-30T04:12:59;19.25;;;16.77;;
45402;SDS011;47427;51.976;5.326;2024-01-30T04:16:02;19.60;;;17.58;;
45402;SDS011;47427;51.976;5.326;2024-01-30T04:19:05;18.83;;;16.85;;
45402;SDS011;47427;51.976;5.326;2024-01-30T04:22:06;18.73;;;16.60;;
45402;SDS011;47427;51.976;5.326;2024-01-30T04:25:09;22.70;;;18.30;;
45402;SDS011;47427;51.976;5.326;2024-01-30T04:28:13;25.85;;;20.30;;
45402;SDS011;47427;51.976;5.326;2024-01-30T04:31:16;22.60;;;19.02;;
45402;SDS011;47427;51.976;5.326;2024-01-30T04:34:18;26.08;;;19.50;;
45402;SDS011;47427;51.976;5.326;2024-01-30T04:37:21;22.80;;;18.42;;
45402;SDS011;47427;51.976;5.326;2024-01-30T04:40:24;19.98;;;17.98;;
45402;SDS011;47427;51.976;5.326;2024-01-30T04:43:27;21.45;;;17.88;;
45402;SDS011;47427;51.976;5.326;2024-01-30T04:46:29;18.48;;;16.42;;
45402;SDS011;47427;51.976;5.326;2024-01-30T04:49:31;25.08;;;18.00;;
45402;SDS011;47427;51.976;5.326;2024-01-30T04:52:34;21.05;;;18.85;;
45402;SDS011;47427;51.976;5.326;2024-01-30T04:55:37;20.42;;;18.35;;
45402;SDS011;47427;51.976;5.326;2024-01-30T04:58:40;25.65;;;19.08;;
45402;SDS011;47427;51.976;5.326;2024-01-30T05:01:42;19.52;;;17.63;;
45402;SDS011;47427;51.976;5.326;2024-01-30T05:04:43;19.63;;;17.70;;
45402;SDS011;47427;51.976;5.326;2024-01-30T05:07:46;18.65;;;16.65;;
45402;SDS011;47427;51.976;5.326;2024-01-30T05:10:49;18.45;;;16.33;;
45402;SDS011;47427;51.976;5.326;2024-01-30T05:13:50;18.13;;;16.20;;
45402;SDS011;47427;51.976;5.326;2024-01-30T05:16:53;17.52;;;15.75;;
45402;SDS011;47427;51.976;5.326;2024-01-30T05:19:56;22.00;;;17.05;;
45402;SDS011;47427;51.976;5.326;2024-01-30T05:22:58;20.85;;;16.92;;
45402;SDS011;47427;51.976;5.326;2024-01-30T05:26:00;17.02;;;15.23;;
45402;SDS011;47427;51.976;5.326;2024-01-30T05:29:04;18.67;;;15.32;;
45402;SDS011;47427;51.976;5.326;2024-01-30T05:32:08;17.25;;;14.85;;
45402;SDS011;47427;51.976;5.326;2024-01-30T05:35:31;17.38;;;13.60;;
45402;SDS011;47427;51.976;5.326;2024-01-30T05:38:37;16.05;;;14.45;;
45402;SDS011;47427;51.976;5.326;2024-01-30T05:41:39;16.20;;;14.60;;
45402;SDS011;47427;51.976;5.326;2024-01-30T05:44:43;19.58;;;15.20;;
45402;SDS011;47427;51.976;5.326;2024-01-30T05:47:45;17.95;;;15.90;;
45402;SDS011;47427;51.976;5.326;2024-01-30T05:50:47;17.08;;;15.27;;
45402;SDS011;47427;51.976;5.326;2024-01-30T05:53:50;18.45;;;15.30;;
45402;SDS011;47427;51.976;5.326;2024-01-30T05:56:52;16.73;;;14.75;;
45402;SDS011;47427;51.976;5.326;2024-01-30T05:59:55;16.95;;;15.15;;
45402;SDS011;47427;51.976;5.326;2024-01-30T06:02:57;18.42;;;15.48;;
45402;SDS011;47427;51.976;5.326;2024-01-30T06:05:59;16.10;;;14.40;;
45402;SDS011;47427;51.976;5.326;2024-01-30T06:09:02;16.13;;;14.55;;
45402;SDS011;47427;51.976;5.326;2024-01-30T06:12:05;18.67;;;14.88;;
45402;SDS011;47427;51.976;5.326;2024-01-30T06:15:08;17.73;;;14.55;;
45402;SDS011;47427;51.976;5.326;2024-01-30T06:18:11;16.05;;;14.40;;
45402;SDS011;47427;51.976;5.326;2024-01-30T06:21:14;19.88;;;15.68;;
45402;SDS011;47427;51.976;5.326;2024-01-30T06:24:16;16.17;;;14.43;;
45402;SDS011;47427;51.976;5.326;2024-01-30T06:27:19;17.02;;;15.25;;
45402;SDS011;47427;51.976;5.326;2024-01-30T06:30:22;15.93;;;13.77;;
45402;SDS011;47427;51.976;5.326;2024-01-30T06:33:25;17.13;;;14.30;;
45402;SDS011;47427;51.976;5.326;2024-01-30T06:36:28;15.20;;;13.73;;
45402;SDS011;47427;51.976;5.326;2024-01-30T06:39:30;16.30;;;14.60;;
45402;SDS011;47427;51.976;5.326;2024-01-30T06:42:32;16.60;;;14.65;;
45402;SDS011;47427;51.976;5.326;2024-01-30T06:45:35;19.00;;;15.75;;
45402;SDS011;47427;51.976;5.326;2024-01-30T06:48:37;17.20;;;14.95;;
45402;SDS011;47427;51.976;5.326;2024-01-30T06:51:42;19.40;;;14.77;;
45402;SDS011;47427;51.976;5.326;2024-01-30T06:54:43;16.33;;;14.70;;
45402;SDS011;47427;51.976;5.326;2024-01-30T06:57:46;16.10;;;14.40;;
45402;SDS011;47427;51.976;5.326;2024-01-30T07:00:49;17.60;;;15.32;;
45402;SDS011;47427;51.976;5.326;2024-01-30T07:03:52;19.20;;;15.73;;
45402;SDS011;47427;51.976;5.326;2024-01-30T07:06:53;16.73;;;14.93;;
45402;SDS011;47427;51.976;5.326;2024-01-30T07:09:59;17.20;;;14.38;;
45402;SDS011;47427;51.976;5.326;2024-01-30T07:13:03;15.55;;;13.75;;
45402;SDS011;47427;51.976;5.326;2024-01-30T07:16:07;18.03;;;16.27;;
45402;SDS011;47427;51.976;5.326;2024-01-30T07:19:10;17.50;;;15.48;;
45402;SDS011;47427;51.976;5.326;2024-01-30T07:22:12;16.23;;;14.43;;
45402;SDS011;47427;51.976;5.326;2024-01-30T07:25:15;17.50;;;15.25;;
45402;SDS011;47427;51.976;5.326;2024-01-30T07:28:19;18.02;;;16.23;;
45402;SDS011;47427;51.976;5.326;2024-01-30T07:31:22;17.83;;;14.80;;
45402;SDS011;47427;51.976;5.326;2024-01-30T07:34:24;16.88;;;15.18;;
45402;SDS011;47427;51.976;5.326;2024-01-30T07:37:27;19.67;;;17.88;;
45402;SDS011;47427;51.976;5.326;2024-01-30T07:40:30;19.35;;;17.52;;
45402;SDS011;47427;51.976;5.326;2024-01-30T07:43:35;19.80;;;17.73;;
45402;SDS011;47427;51.976;5.326;2024-01-30T07:46:37;20.40;;;18.50;;
45402;SDS011;47427;51.976;5.326;2024-01-30T07:49:40;19.33;;;17.42;;
45402;SDS011;47427;51.976;5.326;2024-01-30T07:52:43;20.80;;;17.45;;
45402;SDS011;47427;51.976;5.326;2024-01-30T07:55:46;19.65;;;17.65;;
45402;SDS011;47427;51.976;5.326;2024-01-30T07:58:48;20.60;;;17.40;;
45402;SDS011;47427;51.976;5.326;2024-01-30T08:02:03;22.20;;;19.15;;
45402;SDS011;47427;51.976;5.326;2024-01-30T08:05:07;20.23;;;16.98;;
45402;SDS011;47427;51.976;5.326;2024-01-30T08:08:13;19.08;;;17.10;;
45402;SDS011;47427;51.976;5.326;2024-01-30T08:11:14;18.05;;;16.10;;
45402;SDS011;47427;51.976;5.326;2024-01-30T08:14:18;21.63;;;17.55;;
45402;SDS011;47427;51.976;5.326;2024-01-30T08:17:20;20.58;;;18.40;;
45402;SDS011;47427;51.976;5.326;2024-01-30T08:20:23;19.17;;;17.10;;
45402;SDS011;47427;51.976;5.326;2024-01-30T08:23:25;22.58;;;18.13;;
45402;SDS011;47427;51.976;5.326;2024-01-30T08:26:29;23.00;;;16.67;;
45402;SDS011;47427;51.976;5.326;2024-01-30T08:29:32;30.33;;;18.23;;
45402;SDS011;47427;51.976;5.326;2024-01-30T08:32:35;21.88;;;17.13;;
45402;SDS011;47427;51.976;5.326;2024-01-30T08:35:37;17.92;;;15.38;;
45402;SDS011;47427;51.976;5.326;2024-01-30T08:38:40;20.63;;;17.63;;
45402;SDS011;47427;51.976;5.326;2024-01-30T08:41:43;25.10;;;18.05;;
45402;SDS011;47427;51.976;5.326;2024-01-30T08:44:46;21.08;;;17.83;;
45402;SDS011;47427;51.976;5.326;2024-01-30T08:47:49;24.58;;;18.58;;
45402;SDS011;47427;51.976;5.326;2024-01-30T08:50:52;20.90;;;17.13;;
45402;SDS011;47427;51.976;5.326;2024-01-30T08:53:55;22.50;;;16.85;;
45402;SDS011;47427;51.976;5.326;2024-01-30T08:56:58;23.67;;;18.48;;
45402;SDS011;47427;51.976;5.326;2024-01-30T09:00:01;19.08;;;16.92;;
45402;SDS011;47427;51.976;5.326;2024-01-30T09:03:07;19.02;;;16.55;;
45402;SDS011;47427;51.976;5.326;2024-01-30T09:06:10;19.48;;;17.30;;
45402;SDS011;47427;51.976;5.326;2024-01-30T09:09:13;18.20;;;16.20;;
45402;SDS011;47427;51.976;5.326;2024-01-30T09:12:16;23.10;;;16.63;;
45402;SDS011;47427;51.976;5.326;2024-01-30T09:15:18;16.13;;;14.52;;
45402;SDS011;47427;51.976;5.326;2024-01-30T09:18:21;17.65;;;16.02;;
45402;SDS011;47427;51.976;5.326;2024-01-30T09:21:24;20.35;;;16.00;;
45402;SDS011;47427;51.976;5.326;2024-01-30T09:24:27;18.38;;;16.45;;
45402;SDS011;47427;51.976;5.326;2024-01-30T09:27:29;20.42;;;16.27;;
45402;SDS011;47427;51.976;5.326;2024-01-30T09:30:34;24.00;;;17.55;;
45402;SDS011;47427;51.976;5.326;2024-01-30T09:33:37;21.90;;;16.50;;
45402;SDS011;47427;51.976;5.326;2024-01-30T09:36:41;20.13;;;15.95;;
45402;SDS011;47427;51.976;5.326;2024-01-30T09:39:42;22.15;;;16.33;;
45402;SDS011;47427;51.976;5.326;2024-01-30T09:42:46;22.42;;;17.05;;
45402;SDS011;47427;51.976;5.326;2024-01-30T09:45:52;20.27;;;17.42;;
45402;SDS011;47427;51.976;5.326;2024-01-30T09:48:57;20.02;;;16.92;;
45402;SDS011;47427;51.976;5.326;2024-01-30T09:51:59;17.73;;;16.00;;
45402;SDS011;47427;51.976;5.326;2024-01-30T09:55:07;20.67;;;16.55;;
45402;SDS011;47427;51.976;5.326;2024-01-30T09:58:11;27.58;;;17.42;;
45402;SDS011;47427;51.976;5.326;2024-01-30T10:01:15;16.70;;;14.27;;
45402;SDS011;47427;51.976;5.326;2024-01-30T10:04:19;23.50;;;15.77;;
45402;SDS011;47427;51.976;5.326;2024-01-30T10:07:22;19.52;;;15.50;;
45402;SDS011;47427;51.976;5.326;2024-01-30T10:10:25;19.77;;;16.58;;
45402;SDS011;47427;51.976;5.326;2024-01-30T10:13:28;19.23;;;16.08;;
45402;SDS011;47427;51.976;5.326;2024-01-30T10:16:29;21.33;;;16.48;;
45402;SDS011;47427;51.976;5.326;2024-01-30T10:19:32;18.88;;;15.75;;
45402;SDS011;47427;51.976;5.326;2024-01-30T10:22:35;17.20;;;15.50;;
45402;SDS011;47427;51.976;5.326;2024-01-30T10:25:38;19.75;;;15.20;;
45402;SDS011;47427;51.976;5.326;2024-01-30T10:28:41;21.92;;;15.75;;
45402;SDS011;47427;51.976;5.326;2024-01-30T10:31:42;16.02;;;13.18;;
45402;SDS011;47427;51.976;5.326;2024-01-30T10:34:44;15.18;;;13.50;;
45402;SDS011;47427;51.976;5.326;2024-01-30T10:37:47;17.13;;;14.60;;
45402;SDS011;47427;51.976;5.326;2024-01-30T10:40:51;15.52;;;13.73;;
45402;SDS011;47427;51.976;5.326;2024-01-30T10:43:58;16.42;;;14.68;;
45402;SDS011;47427;51.976;5.326;2024-01-30T10:47:11;19.35;;;15.85;;
45402;SDS011;47427;51.976;5.326;2024-01-30T10:50:17;16.00;;;14.23;;
45402;SDS011;47427;51.976;5.326;2024-01-30T10:53:21;17.98;;;14.07;;
45402;SDS011;47427;51.976;5.326;2024-01-30T10:56:26;17.20;;;13.48;;
45402;SDS011;47427;51.976;5.326;2024-01-30T10:59:30;22.02;;;14.23;;
45402;SDS011;47427;51.976;5.326;2024-01-30T11:02:34;14.27;;;12.80;;
45402;SDS011;47427;51.976;5.326;2024-01-30T11:05:40;15.48;;;12.65;;
45402;SDS011;47427;51.976;5.326;2024-01-30T11:08:43;13.30;;;10.70;;
45402;SDS011;47427;51.976;5.326;2024-01-30T11:11:49;13.60;;;11.07;;
45402;SDS011;47427;51.976;5.326;2024-01-30T11:15:09;14.73;;;10.82;;
45402;SDS011;47427;51.976;5.326;2024-01-30T11:18:24;12.30;;;9.68;;
45402;SDS011;47427;51.976;5.326;2024-01-30T11:21:27;11.45;;;10.05;;
45402;SDS011;47427;51.976;5.326;2024-01-30T11:24:30;11.02;;;9.82;;
45402;SDS011;47427;51.976;5.326;2024-01-30T11:27:45;8.63;;;7.93;;
45402;SDS011;47427;51.976;5.326;2024-01-30T11:30:51;9.40;;;8.15;;
45402;SDS011;47427;51.976;5.326;2024-01-30T11:34:03;11.10;;;9.48;;
45402;SDS011;47427;51.976;5.326;2024-01-30T11:37:09;14.30;;;9.15;;
45402;SDS011;47427;51.976;5.326;2024-01-30T11:40:13;11.98;;;10.88;;
45402;SDS011;47427;51.976;5.326;2024-01-30T11:43:16;15.25;;;10.07;;
45402;SDS011;47427;51.976;5.326;2024-01-30T11:46:18;11.77;;;10.15;;
45402;SDS011;47427;51.976;5.326;2024-01-30T11:49:21;12.10;;;10.82;;
45402;SDS011;47427;51.976;5.326;2024-01-30T11:52:23;10.95;;;9.85;;
45402;SDS011;47427;51.976;5.326;2024-01-30T11:55:26;10.00;;;9.10;;
45402;SDS011;47427;51.976;5.326;2024-01-30T11:58:32;9.15;;;7.43;;
45402;SDS011;47427;51.976;5.326;2024-01-30T12:01:34;8.13;;;7.38;;
45402;SDS011;47427;51.976;5.326;2024-01-30T12:04:36;7.43;;;6.72;;
45402;SDS011;47427;51.976;5.326;2024-01-30T12:07:38;8.63;;;7.90;;
45402;SDS011;47427;51.976;5.326;2024-01-30T12:10:41;9.02;;;7.03;;
45402;SDS011;47427;51.976;5.326;2024-01-30T12:13:44;7.05;;;6.50;;
45402;SDS011;47427;51.976;5.326;2024-01-30T12:16:48;7.05;;;6.47;;
45402;SDS011;47427;51.976;5.326;2024-01-30T12:20:05;8.35;;;7.53;;
45402;SDS011;47427;51.976;5.326;2024-01-30T12:23:09;11.50;;;9.40;;
45402;SDS011;47427;51.976;5.326;2024-01-30T12:26:14;8.95;;;7.95;;
45402;SDS011;47427;51.976;5.326;2024-01-30T12:29:16;12.23;;;9.13;;
45402;SDS011;47427;51.976;5.326;2024-01-30T12:32:19;10.55;;;9.68;;
45402;SDS011;47427;51.976;5.326;2024-01-30T12:35:23;14.20;;;10.40;;
45402;SDS011;47427;51.976;5.326;2024-01-30T12:38:25;12.50;;;9.75;;
45402;SDS011;47427;51.976;5.326;2024-01-30T12:41:27;15.25;;;9.15;;
45402;SDS011;47427;51.976;5.326;2024-01-30T12:44:50;10.05;;;8.93;;
45402;SDS011;47427;51.976;5.326;2024-01-30T12:47:51;10.85;;;9.70;;
45402;SDS011;47427;51.976;5.326;2024-01-30T12:50:55;16.15;;;10.27;;
45402;SDS011;47427;51.976;5.326;2024-01-30T12:53:57;15.55;;;10.73;;
45402;SDS011;47427;51.976;5.326;2024-01-30T12:57:00;12.55;;;9.15;;
45402;SDS011;47427;51.976;5.326;2024-01-30T13:00:03;15.50;;;9.52;;
45402;SDS011;47427;51.976;5.326;2024-01-30T13:03:25;14.43;;;9.57;;
45402;SDS011;47427;51.976;5.326;2024-01-30T13:06:27;15.20;;;10.40;;
45402;SDS011;47427;51.976;5.326;2024-01-30T13:09:30;15.35;;;10.23;;
45402;SDS011;47427;51.976;5.326;2024-01-30T13:12:36;11.65;;;10.55;;
45402;SDS011;47427;51.976;5.326;2024-01-30T13:15:40;15.15;;;10.57;;
45402;SDS011;47427;51.976;5.326;2024-01-30T13:18:43;12.13;;;9.93;;
45402;SDS011;47427;51.976;5.326;2024-01-30T13:21:46;11.55;;;9.98;;
45402;SDS011;47427;51.976;5.326;2024-01-30T13:24:49;14.75;;;9.80;;
45402;SDS011;47427;51.976;5.326;2024-01-30T13:27:53;10.25;;;9.05;;
45402;SDS011;47427;51.976;5.326;2024-01-30T13:30:54;10.80;;;9.50;;
45402;SDS011;47427;51.976;5.326;2024-01-30T13:33:57;8.27;;;7.68;;
45402;SDS011;47427;51.976;5.326;2024-01-30T13:37:00;10.52;;;8.98;;
45402;SDS011;47427;51.976;5.326;2024-01-30T13:40:04;10.90;;;8.48;;
45402;SDS011;47427;51.976;5.326;2024-01-30T13:43:07;9.37;;;8.37;;
45402;SDS011;47427;51.976;5.326;2024-01-30T13:46:10;9.18;;;8.27;;
45402;SDS011;47427;51.976;5.326;2024-01-30T13:49:13;8.90;;;8.00;;
45402;SDS011;47427;51.976;5.326;2024-01-30T13:52:16;8.80;;;7.93;;
45402;SDS011;47427;51.976;5.326;2024-01-30T13:55:18;8.23;;;7.43;;
45402;SDS011;47427;51.976;5.326;2024-01-30T13:58:22;8.55;;;7.70;;
45402;SDS011;47427;51.976;5.326;2024-01-30T14:01:24;10.50;;;8.32;;
45402;SDS011;47427;51.976;5.326;2024-01-30T14:04:27;8.93;;;8.32;;
45402;SDS011;47427;51.976;5.326;2024-01-30T14:07:29;9.98;;;9.27;;
45402;SDS011;47427;51.976;5.326;2024-01-30T14:10:32;11.60;;;10.40;;
45402;SDS011;47427;51.976;5.326;2024-01-30T14:13:34;11.23;;;10.10;;
45402;SDS011;47427;51.976;5.326;2024-01-30T14:16:37;11.45;;;10.32;;
45402;SDS011;47427;51.976;5.326;2024-01-30T14:19:39;13.30;;;10.23;;
45402;SDS011;47427;51.976;5.326;2024-01-30T14:22:42;12.38;;;10.45;;
45402;SDS011;47427;51.976;5.326;2024-01-30T14:25:44;11.65;;;10.40;;
45402;SDS011;47427;51.976;5.326;2024-01-30T14:28:47;11.02;;;9.90;;
45402;SDS011;47427;51.976;5.326;2024-01-30T14:31:50;11.48;;;9.90;;
45402;SDS011;47427;51.976;5.326;2024-01-30T14:34:52;14.40;;;10.13;;
45402;SDS011;47427;51.976;5.326;2024-01-30T14:37:55;9.88;;;8.85;;
45402;SDS011;47427;51.976;5.326;2024-01-30T14:40:58;11.68;;;9.43;;
45402;SDS011;47427;51.976;5.326;2024-01-30T14:44:01;10.65;;;9.57;;
45402;SDS011;47427;51.976;5.326;2024-01-30T14:47:03;14.13;;;9.73;;
45402;SDS011;47427;51.976;5.326;2024-01-30T14:50:06;11.65;;;9.90;;
45402;SDS011;47427;51.976;5.326;2024-01-30T14:53:09;10.13;;;9.30;;
45402;SDS011;47427;51.976;5.326;2024-01-30T14:56:12;10.40;;;9.27;;
45402;SDS011;47427;51.976;5.326;2024-01-30T14:59:14;12.50;;;11.35;;
45402;SDS011;47427;51.976;5.326;2024-01-30T15:02:17;11.80;;;10.70;;
45402;SDS011;47427;51.976;5.326;2024-01-30T15:05:20;12.70;;;11.57;;
45402;SDS011;47427;51.976;5.326;2024-01-30T15:08:23;13.23;;;11.85;;
45402;SDS011;47427;51.976;5.326;2024-01-30T15:11:24;13.50;;;10.77;;
45402;SDS011;47427;51.976;5.326;2024-01-30T15:14:27;13.60;;;11.00;;
45402;SDS011;47427;51.976;5.326;2024-01-30T15:17:30;13.73;;;12.05;;
45402;SDS011;47427;51.976;5.326;2024-01-30T15:20:32;14.93;;;13.40;;
45402;SDS011;47427;51.976;5.326;2024-01-30T15:23:34;14.05;;;12.60;;
45402;SDS011;47427;51.976;5.326;2024-01-30T15:26:37;14.05;;;12.52;;
45402;SDS011;47427;51.976;5.326;2024-01-30T15:29:40;15.52;;;13.27;;
45402;SDS011;47427;51.976;5.326;2024-01-30T15:32:43;15.35;;;13.95;;
45402;SDS011;47427;51.976;5.326;2024-01-30T15:35:45;16.52;;;11.77;;
45402;SDS011;47427;51.976;5.326;2024-01-30T15:38:48;13.32;;;12.18;;
45402;SDS011;47427;51.976;5.326;2024-01-30T15:41:50;12.75;;;11.68;;
45402;SDS011;47427;51.976;5.326;2024-01-30T15:44:54;13.52;;;12.30;;
45402;SDS011;47427;51.976;5.326;2024-01-30T15:47:57;14.18;;;12.80;;
45402;SDS011;47427;51.976;5.326;2024-01-30T15:50:59;13.85;;;12.63;;
45402;SDS011;47427;51.976;5.326;2024-01-30T15:54:01;14.90;;;13.68;;
45402;SDS011;47427;51.976;5.326;2024-01-30T15:57:04;14.50;;;13.02;;
45402;SDS011;47427;51.976;5.326;2024-01-30T16:00:07;16.40;;;14.88;;
45402;SDS011;47427;51.976;5.326;2024-01-30T16:03:12;16.25;;;14.60;;
45402;SDS011;47427;51.976;5.326;2024-01-30T16:06:15;16.20;;;14.77;;
45402;SDS011;47427;51.976;5.326;2024-01-30T16:09:18;19.73;;;16.40;;
45402;SDS011;47427;51.976;5.326;2024-01-30T16:12:20;15.85;;;14.45;;
45402;SDS011;47427;51.976;5.326;2024-01-30T16:15:22;17.30;;;15.77;;
45402;SDS011;47427;51.976;5.326;2024-01-30T16:18:26;17.67;;;16.15;;
45402;SDS011;47427;51.976;5.326;2024-01-30T16:21:32;17.67;;;16.25;;
45402;SDS011;47427;51.976;5.326;2024-01-30T16:24:35;17.25;;;16.05;;
45402;SDS011;47427;51.976;5.326;2024-01-30T16:27:37;19.60;;;17.83;;
45402;SDS011;47427;51.976;5.326;2024-01-30T16:30:40;18.85;;;17.10;;
45402;SDS011;47427;51.976;5.326;2024-01-30T16:33:42;20.00;;;18.10;;
45402;SDS011;47427;51.976;5.326;2024-01-30T16:36:45;19.35;;;17.45;;
45402;SDS011;47427;51.976;5.326;2024-01-30T16:39:47;17.00;;;15.50;;
45402;SDS011;47427;51.976;5.326;2024-01-30T16:42:49;16.98;;;15.25;;
45402;SDS011;47427;51.976;5.326;2024-01-30T16:45:52;18.58;;;16.13;;
45402;SDS011;47427;51.976;5.326;2024-01-30T16:48:55;21.60;;;17.33;;
45402;SDS011;47427;51.976;5.326;2024-01-30T16:51:57;21.95;;;19.73;;
45402;SDS011;47427;51.976;5.326;2024-01-30T16:54:59;19.95;;;17.85;;
45402;SDS011;47427;51.976;5.326;2024-01-30T16:58:02;21.65;;;19.45;;
45402;SDS011;47427;51.976;5.326;2024-01-30T17:01:05;20.92;;;18.80;;
45402;SDS011;47427;51.976;5.326;2024-01-30T17:04:08;24.13;;;20.13;;
45402;SDS011;47427;51.976;5.326;2024-01-30T17:07:11;22.27;;;19.08;;
45402;SDS011;47427;51.976;5.326;2024-01-30T17:10:13;31.55;;;25.52;;
45402;SDS011;47427;51.976;5.326;2024-01-30T17:13:18;22.98;;;20.30;;
45402;SDS011;47427;51.976;5.326;2024-01-30T17:16:21;25.05;;;22.40;;
45402;SDS011;47427;51.976;5.326;2024-01-30T17:19:22;23.98;;;21.48;;
45402;SDS011;47427;51.976;5.326;2024-01-30T17:22:25;23.80;;;21.60;;
45402;SDS011;47427;51.976;5.326;2024-01-30T17:25:28;23.20;;;20.88;;
45402;SDS011;47427;51.976;5.326;2024-01-30T17:28:31;24.85;;;22.23;;
45402;SDS011;47427;51.976;5.326;2024-01-30T17:31:33;24.73;;;22.20;;
45402;SDS011;47427;51.976;5.326;2024-01-30T17:34:35;23.55;;;21.25;;
45402;SDS011;47427;51.976;5.326;2024-01-30T17:37:38;24.13;;;21.92;;
45402;SDS011;47427;51.976;5.326;2024-01-30T17:40:42;22.00;;;19.52;;
45402;SDS011;47427;51.976;5.326;2024-01-30T17:43:43;24.48;;;20.17;;
45402;SDS011;47427;51.976;5.326;2024-01-30T17:46:46;23.02;;;20.73;;
45402;SDS011;47427;51.976;5.326;2024-01-30T17:49:52;20.70;;;18.73;;
45402;SDS011;47427;51.976;5.326;2024-01-30T17:52:55;19.05;;;17.15;;
45402;SDS011;47427;51.976;5.326;2024-01-30T17:55:57;20.50;;;18.38;;